• Join FlightAware (Why Join?)
  • Login
  • US Flag 
08:05AM EDT


 

Airport Tracker/Info


-or-


 

Live Flight TrackerFlight Track Log ✈ RPA3247 ✈ 09-May-2013 ✈ KALB - KDCA

Flight Track Log - Related Links

Times and Time Zones

All times are in EDT time to prevent confusion due to time zone crossing. See the RPA3247 flight status page for this flight to view local times or setup timezone preferences in your user account.

Time Position Orientation Groundspeed Altitude Reporting Facility
EDT Latitude Longitude Course Direction KTS MPH feet Rate Location/Type
06:12PM 42.7236 -73.8050 169° South 151 174 1,700  Level Boston Center
06:13PM 42.7003 -73.8328 221° Southwest 189 217 2,500 2,640 Climbing Boston Center
06:15PM 42.4599 -74.0584 171° South  Level Estimated
06:15PM 42.7322 -73.9411 292° West 279 321 7,500  Level Boston Center
06:16PM 42.3876 -74.1221 170° South  Level Estimated
06:16PM 42.7519 -74.0236 288° West 251 289 10,300  Level Boston Center
06:17PM 42.3445 -74.0209 120° Southeast  Level FlightAware Approximate
06:17PM 42.7547 -74.1197 272° West 244 281 12,800  Level Boston Center
06:18PM 42.2732 -74.0865 169° South  Level Estimated
06:18PM 42.6769 -74.1742 207° Southwest 252 290 15,000  Level Boston Center
06:19PM 42.5872 -74.1689 178° South 311 358 16,700 1,740 Climbing Boston Center
06:20PM 42.4947 -74.0986 151° Southeast 344 396 18,500 1,740 Climbing Boston Center
06:21PM 42.3997 -74.0369 154° Southeast 358 412 20,600 1,920 Climbing Boston Center
06:22PM 42.2800 -73.9525 152° Southeast 387 445 22,800 1,920 Climbing Boston Center
06:23PM 42.1767 -73.8828 153° Southeast 404 465 24,500 1,500 Climbing Boston Center
06:24PM 42.0939 -73.8278 154° Southeast 410 472 25,900 1,500 Climbing Boston Center
06:25PM 41.9678 -73.7411 153° Southeast 421 484 27,600 1,020 Climbing Boston Center
06:26PM 41.8622 -73.6667 152° Southeast 421 484 28,000 180 Climbing Boston Center
06:27PM 41.7544 -73.6061 157° South 421 484 28,000  Level Boston Center
06:28PM 41.6381 -73.5983 177° South 416 479 28,000  Level Boston Center
06:29PM 41.5150 -73.5933 178° South 426 490 28,000  Level Boston Center
06:31PM 41.2356 -73.7039 197° South 447 514 28,000  Level New York Center
06:32PM 41.1531 -73.8353 230° Southwest 439 505 28,000  Level New York Center
06:33PM 41.0725 -73.9664 231° Southwest 444 511 28,000  Level New York Center
06:34PM 40.9964 -74.0867 230° Southwest 464 534 28,000  Level New York Center
06:35PM 40.9008 -74.2247 228° Southwest 471 542 28,000  Level New York Center
06:36PM 40.8156 -74.3575 230° Southwest 476 548 28,000  Level New York Center
06:37PM 40.7342 -74.4900 231° Southwest 471 542 28,000  Level New York Center
06:38PM 40.6550 -74.6225 232° Southwest 471 542 28,000 -60 Level New York Center
06:39PM 40.5736 -74.7547 231° Southwest 465 535 27,900 -1,200 Descending New York Center
06:40PM 40.4861 -74.8778 227° Southwest 465 535 25,600 -2,220 Descending New York Center
06:41PM 40.4006 -74.9981 227° Southwest 460 529 23,600 -1,800 Descending New York Center
06:42PM 40.3314 -75.1192 233° Southwest 447 514 22,100 -840 Descending New York Center
06:43PM 40.2847 -75.2550 246° West 421 484 22,000 -60 Descending New York Center
06:44PM 40.1953 -75.3606 222° Southwest 426 490 22,000  Level New York Center
06:45PM 40.1036 -75.4631 221° Southwest 426 490 22,000  Level New York Center
06:46PM 40.0139 -75.5708 223° Southwest 431 496 22,000  Level New York Center
06:47PM 39.9381 -75.6903 230° Southwest 431 496 22,000  Level New York Center
06:48PM 39.8642 -75.8067 230° Southwest 431 496 22,000 -780 Level New York Center
06:49PM 39.7842 -75.9225 228° Southwest 431 496 20,500 -1,920 Descending New York Center
06:50PM 39.7086 -76.0303 228° Southwest 422 486 18,200 -2,160 Descending New York Center
06:51PM 39.6458 -76.1256 229° Southwest 401 461 16,300 -2,040 Descending New York Center
06:52PM 39.5661 -76.2297 225° Southwest 386 444 14,200 -2,040 Descending New York Center
06:53PM 39.5000 -76.3000 219° Southwest 351 404 12,600 -1,260 Descending Potomac TRACON
06:54PM 39.4333 -76.3833 224° Southwest 332 382 12,000 -840 Descending Potomac TRACON
06:55PM 39.3500 -76.4667 218° Southwest 341 392 10,900 -1,020 Descending Potomac TRACON
06:56PM 39.2833 -76.5333 218° Southwest 331 381 10,000 -480 Descending Potomac TRACON
06:57PM 39.2167 -76.6167 224° Southwest 354 407 10,000  Level Potomac TRACON
06:58PM 39.1333 -76.7000 218° Southwest 356 410 10,000  Level Potomac TRACON
06:59PM 39.0667 -76.8000 229° Southwest 357 411 10,000  Level Potomac TRACON
07:00PM 38.9833 -76.8833 218° Southwest 357 411 10,000  Level Potomac TRACON
07:01PM 38.9167 -76.9333 210° Southwest 344 396 10,000 -1,320 Level Potomac TRACON
07:02PM 38.8333 -76.9500 189° South 327 376 7,500 -2,700 Descending Potomac TRACON
07:03PM 38.7500 -76.9500 180° South 288 331 4,600 -1,860 Descending Potomac TRACON
07:04PM 38.6833 -76.9333 169° South 235 270 3,800 -900 Descending Potomac TRACON
07:05PM 38.6333 -76.9333 180° South 180 207 2,900 -660 Descending Potomac TRACON
07:06PM 38.6000 -76.9500 201° Southwest 182 209 2,500 -240 Descending Potomac TRACON
07:07PM 38.6000 -77.0167 270° West 166 191 2,500  Level Potomac TRACON
07:08PM 38.6500 -77.0333 345° North 174 200 2,500  Level Potomac TRACON